sensor_id;sensor_type;location;lat;lon;timestamp;temperature;humidity
16160;DHT22;8185;57.818;15.224;2022-12-10T00:01:57;-3.80;99.90
16160;DHT22;8185;57.818;15.224;2022-12-10T00:04:25;-3.80;99.90
16160;DHT22;8185;57.818;15.224;2022-12-10T00:06:53;-3.80;99.90
16160;DHT22;8185;57.818;15.224;2022-12-10T00:09:20;-3.80;99.90
16160;DHT22;8185;57.818;15.224;2022-12-10T00:11:48;-3.80;99.90
16160;DHT22;8185;57.818;15.224;2022-12-10T00:14:15;-3.80;99.90
16160;DHT22;8185;57.818;15.224;2022-12-10T00:16:43;-3.80;99.90
16160;DHT22;8185;57.818;15.224;2022-12-10T00:19:10;-3.90;99.90
16160;DHT22;8185;57.818;15.224;2022-12-10T00:21:39;-3.90;99.90
16160;DHT22;8185;57.818;15.224;2022-12-10T00:24:06;-3.90;99.90
16160;DHT22;8185;57.818;15.224;2022-12-10T00:26:36;-3.90;99.90
16160;DHT22;8185;57.818;15.224;2022-12-10T00:29:05;-3.80;99.90
16160;DHT22;8185;57.818;15.224;2022-12-10T00:31:34;-3.90;99.90
16160;DHT22;8185;57.818;15.224;2022-12-10T00:34:03;-3.90;99.90
16160;DHT22;8185;57.818;15.224;2022-12-10T00:36:32;-3.90;99.90
16160;DHT22;8185;57.818;15.224;2022-12-10T00:39:03;-3.90;99.90
16160;DHT22;8185;57.818;15.224;2022-12-10T00:41:31;-4.00;99.90
16160;DHT22;8185;57.818;15.224;2022-12-10T00:43:58;-4.00;99.90
16160;DHT22;8185;57.818;15.224;2022-12-10T00:46:25;-4.00;99.90
16160;DHT22;8185;57.818;15.224;2022-12-10T00:48:53;-4.00;99.90
16160;DHT22;8185;57.818;15.224;2022-12-10T00:51:22;-4.00;99.90
16160;DHT22;8185;57.818;15.224;2022-12-10T00:53:51;-4.00;99.90
16160;DHT22;8185;57.818;15.224;2022-12-10T00:56:22;-4.00;99.90
16160;DHT22;8185;57.818;15.224;2022-12-10T00:58:50;-4.00;99.90
16160;DHT22;8185;57.818;15.224;2022-12-10T01:01:21;-4.00;99.90
16160;DHT22;8185;57.818;15.224;2022-12-10T01:03:50;-4.00;99.90
16160;DHT22;8185;57.818;15.224;2022-12-10T01:06:20;-4.00;99.90
16160;DHT22;8185;57.818;15.224;2022-12-10T01:08:48;-4.00;99.90
16160;DHT22;8185;57.818;15.224;2022-12-10T01:11:17;-4.00;99.90
16160;DHT22;8185;57.818;15.224;2022-12-10T01:13:47;-4.00;99.90
16160;DHT22;8185;57.818;15.224;2022-12-10T01:16:17;-4.00;99.90
16160;DHT22;8185;57.818;15.224;2022-12-10T01:18:44;-4.10;99.90
16160;DHT22;8185;57.818;15.224;2022-12-10T01:21:14;-4.10;99.90
16160;DHT22;8185;57.818;15.224;2022-12-10T01:23:43;-4.10;99.90
16160;DHT22;8185;57.818;15.224;2022-12-10T01:26:13;-4.10;99.90
16160;DHT22;8185;57.818;15.224;2022-12-10T01:28:42;-4.10;99.90
16160;DHT22;8185;57.818;15.224;2022-12-10T01:31:13;-4.10;99.90
16160;DHT22;8185;57.818;15.224;2022-12-10T01:33:41;-4.10;99.90
16160;DHT22;8185;57.818;15.224;2022-12-10T01:36:10;-4.10;99.90
16160;DHT22;8185;57.818;15.224;2022-12-10T01:38:38;-4.10;99.90
16160;DHT22;8185;57.818;15.224;2022-12-10T01:41:07;-4.00;99.90
16160;DHT22;8185;57.818;15.224;2022-12-10T01:43:56;-4.00;99.90
16160;DHT22;8185;57.818;15.224;2022-12-10T01:46:27;-4.00;99.90
16160;DHT22;8185;57.818;15.224;2022-12-10T01:48:55;-4.10;99.90
16160;DHT22;8185;57.818;15.224;2022-12-10T01:51:23;-4.10;99.90
16160;DHT22;8185;57.818;15.224;2022-12-10T01:53:51;-4.10;99.90
16160;DHT22;8185;57.818;15.224;2022-12-10T01:56:19;-4.20;99.90
16160;DHT22;8185;57.818;15.224;2022-12-10T01:58:48;-4.20;99.90
16160;DHT22;8185;57.818;15.224;2022-12-10T02:01:22;-4.10;99.90
16160;DHT22;8185;57.818;15.224;2022-12-10T02:04:07;-4.10;99.90
16160;DHT22;8185;57.818;15.224;2022-12-10T02:06:45;-4.20;99.90
16160;DHT22;8185;57.818;15.224;2022-12-10T02:09:20;-4.20;99.90
16160;DHT22;8185;57.818;15.224;2022-12-10T02:11:58;-4.20;99.90
16160;DHT22;8185;57.818;15.224;2022-12-10T02:14:30;-4.20;99.90
16160;DHT22;8185;57.818;15.224;2022-12-10T02:17:07;-4.20;99.90
16160;DHT22;8185;57.818;15.224;2022-12-10T02:20:03;-4.30;99.90
16160;DHT22;8185;57.818;15.224;2022-12-10T02:22:35;-4.30;99.90
16160;DHT22;8185;57.818;15.224;2022-12-10T02:25:07;-4.30;99.90
16160;DHT22;8185;57.818;15.224;2022-12-10T02:27:40;-4.40;99.90
16160;DHT22;8185;57.818;15.224;2022-12-10T02:30:11;-4.40;99.90
16160;DHT22;8185;57.818;15.224;2022-12-10T02:32:40;-4.50;99.90
16160;DHT22;8185;57.818;15.224;2022-12-10T02:35:14;-4.50;99.90
16160;DHT22;8185;57.818;15.224;2022-12-10T02:37:47;-4.50;99.90
16160;DHT22;8185;57.818;15.224;2022-12-10T02:40:18;-4.50;99.90
16160;DHT22;8185;57.818;15.224;2022-12-10T02:42:48;-4.50;99.90
16160;DHT22;8185;57.818;15.224;2022-12-10T02:45:18;-4.50;99.90
16160;DHT22;8185;57.818;15.224;2022-12-10T02:47:47;-4.60;99.90
16160;DHT22;8185;57.818;15.224;2022-12-10T02:50:16;-4.60;99.90
16160;DHT22;8185;57.818;15.224;2022-12-10T02:52:44;-4.60;99.90
16160;DHT22;8185;57.818;15.224;2022-12-10T02:55:12;-4.60;99.90
16160;DHT22;8185;57.818;15.224;2022-12-10T02:57:48;-4.70;99.90
16160;DHT22;8185;57.818;15.224;2022-12-10T03:00:23;-4.60;99.90
16160;DHT22;8185;57.818;15.224;2022-12-10T03:03:03;-4.60;99.90
16160;DHT22;8185;57.818;15.224;2022-12-10T03:05:38;-4.60;99.90
16160;DHT22;8185;57.818;15.224;2022-12-10T03:08:12;-4.70;99.90
16160;DHT22;8185;57.818;15.224;2022-12-10T03:10:45;-4.70;99.90
16160;DHT22;8185;57.818;15.224;2022-12-10T03:13:18;-4.70;99.90
16160;DHT22;8185;57.818;15.224;2022-12-10T03:15:48;-4.70;99.90
16160;DHT22;8185;57.818;15.224;2022-12-10T03:18:17;-4.70;99.90
16160;DHT22;8185;57.818;15.224;2022-12-10T03:20:46;-4.80;99.90
16160;DHT22;8185;57.818;15.224;2022-12-10T03:23:16;-4.80;99.90
16160;DHT22;8185;57.818;15.224;2022-12-10T03:25:47;-4.80;99.90
16160;DHT22;8185;57.818;15.224;2022-12-10T03:28:16;-4.80;99.90
16160;DHT22;8185;57.818;15.224;2022-12-10T03:30:47;-4.90;99.90
16160;DHT22;8185;57.818;15.224;2022-12-10T03:33:15;-4.90;99.90
16160;DHT22;8185;57.818;15.224;2022-12-10T03:35:43;-4.90;99.90
16160;DHT22;8185;57.818;15.224;2022-12-10T03:38:10;-4.90;99.90
16160;DHT22;8185;57.818;15.224;2022-12-10T03:40:37;-5.00;99.90
16160;DHT22;8185;57.818;15.224;2022-12-10T03:43:05;-4.90;99.90
16160;DHT22;8185;57.818;15.224;2022-12-10T03:45:32;-4.90;99.90
16160;DHT22;8185;57.818;15.224;2022-12-10T03:48:01;-5.00;99.90
16160;DHT22;8185;57.818;15.224;2022-12-10T03:50:28;-4.90;99.90
16160;DHT22;8185;57.818;15.224;2022-12-10T03:52:56;-4.90;99.90
16160;DHT22;8185;57.818;15.224;2022-12-10T03:55:23;-4.90;99.90
16160;DHT22;8185;57.818;15.224;2022-12-10T03:57:50;-5.00;99.90
16160;DHT22;8185;57.818;15.224;2022-12-10T04:00:17;-5.00;99.90
16160;DHT22;8185;57.818;15.224;2022-12-10T04:02:44;-5.20;99.90
16160;DHT22;8185;57.818;15.224;2022-12-10T04:05:13;-5.20;99.90
16160;DHT22;8185;57.818;15.224;2022-12-10T04:07:41;-5.20;99.90
16160;DHT22;8185;57.818;15.224;2022-12-10T04:10:08;-5.10;99.90
16160;DHT22;8185;57.818;15.224;2022-12-10T04:12:36;-5.20;99.90
16160;DHT22;8185;57.818;15.224;2022-12-10T04:15:03;-5.10;99.90
16160;DHT22;8185;57.818;15.224;2022-12-10T04:17:48;-5.10;99.90
16160;DHT22;8185;57.818;15.224;2022-12-10T04:20:17;-5.10;99.90
16160;DHT22;8185;57.818;15.224;2022-12-10T04:23:16;-5.10;99.90
16160;DHT22;8185;57.818;15.224;2022-12-10T04:26:00;-5.00;99.90
16160;DHT22;8185;57.818;15.224;2022-12-10T04:28:45;-5.10;99.90
16160;DHT22;8185;57.818;15.224;2022-12-10T04:31:12;-5.10;99.90
16160;DHT22;8185;57.818;15.224;2022-12-10T04:33:39;-5.10;99.90
16160;DHT22;8185;57.818;15.224;2022-12-10T04:36:08;-5.00;99.90
16160;DHT22;8185;57.818;15.224;2022-12-10T04:38:36;-5.00;99.90
16160;DHT22;8185;57.818;15.224;2022-12-10T04:41:03;-5.00;99.90
16160;DHT22;8185;57.818;15.224;2022-12-10T04:43:41;-5.00;99.90
16160;DHT22;8185;57.818;15.224;2022-12-10T04:46:09;-5.00;99.90
16160;DHT22;8185;57.818;15.224;2022-12-10T04:48:36;-5.00;99.90
16160;DHT22;8185;57.818;15.224;2022-12-10T04:51:04;-5.00;99.90
16160;DHT22;8185;57.818;15.224;2022-12-10T04:53:32;-5.00;99.90
16160;DHT22;8185;57.818;15.224;2022-12-10T04:56:00;-5.00;99.90
16160;DHT22;8185;57.818;15.224;2022-12-10T04:58:27;-5.00;99.90
16160;DHT22;8185;57.818;15.224;2022-12-10T05:01:01;-5.00;99.90
16160;DHT22;8185;57.818;15.224;2022-12-10T05:03:29;-5.00;99.90
16160;DHT22;8185;57.818;15.224;2022-12-10T05:06:00;-5.00;99.90
16160;DHT22;8185;57.818;15.224;2022-12-10T05:08:28;-5.00;99.90
16160;DHT22;8185;57.818;15.224;2022-12-10T05:11:00;-5.00;99.90
16160;DHT22;8185;57.818;15.224;2022-12-10T05:13:28;-4.90;99.90
16160;DHT22;8185;57.818;15.224;2022-12-10T05:15:56;-4.90;99.90
16160;DHT22;8185;57.818;15.224;2022-12-10T05:18:23;-4.90;99.90
16160;DHT22;8185;57.818;15.224;2022-12-10T05:20:50;-4.80;99.90
16160;DHT22;8185;57.818;15.224;2022-12-10T05:23:17;-4.90;99.90
16160;DHT22;8185;57.818;15.224;2022-12-10T05:26:01;-4.90;99.90
16160;DHT22;8185;57.818;15.224;2022-12-10T05:28:29;-4.90;99.90
16160;DHT22;8185;57.818;15.224;2022-12-10T05:30:58;-4.90;99.90
16160;DHT22;8185;57.818;15.224;2022-12-10T05:33:25;-4.90;99.90
16160;DHT22;8185;57.818;15.224;2022-12-10T05:35:54;-4.90;99.90
16160;DHT22;8185;57.818;15.224;2022-12-10T05:38:22;-4.90;99.90
16160;DHT22;8185;57.818;15.224;2022-12-10T05:40:50;-4.90;99.90
16160;DHT22;8185;57.818;15.224;2022-12-10T05:43:19;-4.40;99.90
16160;DHT22;8185;57.818;15.224;2022-12-10T05:45:47;-4.80;99.90
16160;DHT22;8185;57.818;15.224;2022-12-10T05:48:15;-4.80;99.90
16160;DHT22;8185;57.818;15.224;2022-12-10T05:50:43;-4.80;99.90
16160;DHT22;8185;57.818;15.224;2022-12-10T05:53:10;-4.80;99.90
16160;DHT22;8185;57.818;15.224;2022-12-10T05:55:39;-4.80;99.90
16160;DHT22;8185;57.818;15.224;2022-12-10T05:58:07;-4.80;99.90
16160;DHT22;8185;57.818;15.224;2022-12-10T06:00:38;-4.80;99.90
16160;DHT22;8185;57.818;15.224;2022-12-10T06:03:05;-4.80;99.90
16160;DHT22;8185;57.818;15.224;2022-12-10T06:05:36;-4.80;99.90
16160;DHT22;8185;57.818;15.224;2022-12-10T06:08:03;-4.70;99.90
16160;DHT22;8185;57.818;15.224;2022-12-10T06:10:31;-4.70;99.90
16160;DHT22;8185;57.818;15.224;2022-12-10T06:13:00;-4.60;99.90
16160;DHT22;8185;57.818;15.224;2022-12-10T06:15:27;-4.60;99.90
16160;DHT22;8185;57.818;15.224;2022-12-10T06:17:56;-4.60;99.90
16160;DHT22;8185;57.818;15.224;2022-12-10T06:20:24;-4.60;99.90
16160;DHT22;8185;57.818;15.224;2022-12-10T06:22:51;-4.60;99.90
16160;DHT22;8185;57.818;15.224;2022-12-10T06:25:19;-4.60;99.90
16160;DHT22;8185;57.818;15.224;2022-12-10T06:27:46;-4.60;99.90
16160;DHT22;8185;57.818;15.224;2022-12-10T06:30:14;-4.60;99.90
16160;DHT22;8185;57.818;15.224;2022-12-10T06:32:41;-4.60;99.90
16160;DHT22;8185;57.818;15.224;2022-12-10T06:35:10;-4.60;99.90
16160;DHT22;8185;57.818;15.224;2022-12-10T06:37:38;-4.60;99.90
16160;DHT22;8185;57.818;15.224;2022-12-10T06:40:06;-4.60;99.90
16160;DHT22;8185;57.818;15.224;2022-12-10T06:42:33;-4.60;99.90
16160;DHT22;8185;57.818;15.224;2022-12-10T06:45:01;-4.60;99.90
16160;DHT22;8185;57.818;15.224;2022-12-10T06:47:28;-4.50;99.90
16160;DHT22;8185;57.818;15.224;2022-12-10T06:49:55;-4.60;99.90
16160;DHT22;8185;57.818;15.224;2022-12-10T06:52:24;-4.60;99.90
16160;DHT22;8185;57.818;15.224;2022-12-10T06:54:51;-4.50;99.90
16160;DHT22;8185;57.818;15.224;2022-12-10T06:57:20;-4.50;99.90
16160;DHT22;8185;57.818;15.224;2022-12-10T06:59:47;-4.60;99.90
16160;DHT22;8185;57.818;15.224;2022-12-10T07:02:14;-4.50;99.90
16160;DHT22;8185;57.818;15.224;2022-12-10T07:04:41;-4.50;99.90
16160;DHT22;8185;57.818;15.224;2022-12-10T07:07:09;-4.50;99.90
16160;DHT22;8185;57.818;15.224;2022-12-10T07:09:37;-4.50;99.90
16160;DHT22;8185;57.818;15.224;2022-12-10T07:12:04;-4.50;99.90
16160;DHT22;8185;57.818;15.224;2022-12-10T07:14:32;-4.50;99.90
16160;DHT22;8185;57.818;15.224;2022-12-10T07:16:59;-4.40;99.90
16160;DHT22;8185;57.818;15.224;2022-12-10T07:19:28;-4.40;99.90
16160;DHT22;8185;57.818;15.224;2022-12-10T07:21:55;-4.40;99.90
16160;DHT22;8185;57.818;15.224;2022-12-10T07:24:22;-4.40;99.90
16160;DHT22;8185;57.818;15.224;2022-12-10T07:26:52;-4.30;99.90
16160;DHT22;8185;57.818;15.224;2022-12-10T07:29:20;-4.40;99.90
16160;DHT22;8185;57.818;15.224;2022-12-10T07:31:48;-4.40;99.90
16160;DHT22;8185;57.818;15.224;2022-12-10T07:34:15;-4.40;99.90
16160;DHT22;8185;57.818;15.224;2022-12-10T07:36:43;-4.30;99.90
16160;DHT22;8185;57.818;15.224;2022-12-10T07:39:12;-4.30;99.90
16160;DHT22;8185;57.818;15.224;2022-12-10T07:41:43;-4.30;99.90
16160;DHT22;8185;57.818;15.224;2022-12-10T07:44:13;-4.30;99.90
16160;DHT22;8185;57.818;15.224;2022-12-10T07:46:40;-4.30;99.90
16160;DHT22;8185;57.818;15.224;2022-12-10T07:49:07;-4.30;99.90
16160;DHT22;8185;57.818;15.224;2022-12-10T07:51:35;-4.30;99.90
16160;DHT22;8185;57.818;15.224;2022-12-10T07:54:02;-4.40;99.90
16160;DHT22;8185;57.818;15.224;2022-12-10T07:56:29;-4.30;99.90
16160;DHT22;8185;57.818;15.224;2022-12-10T07:58:57;-4.30;99.90
16160;DHT22;8185;57.818;15.224;2022-12-10T08:01:26;-4.30;99.90
16160;DHT22;8185;57.818;15.224;2022-12-10T08:03:55;-4.20;99.90
16160;DHT22;8185;57.818;15.224;2022-12-10T08:06:25;-4.20;99.90
16160;DHT22;8185;57.818;15.224;2022-12-10T08:08:53;-4.10;99.90
16160;DHT22;8185;57.818;15.224;2022-12-10T08:11:21;-4.20;99.90
16160;DHT22;8185;57.818;15.224;2022-12-10T08:13:49;-4.20;99.90
16160;DHT22;8185;57.818;15.224;2022-12-10T08:16:19;-4.10;99.90
16160;DHT22;8185;57.818;15.224;2022-12-10T08:18:50;-4.10;99.90
16160;DHT22;8185;57.818;15.224;2022-12-10T08:21:19;-4.10;99.90
16160;DHT22;8185;57.818;15.224;2022-12-10T08:23:47;-4.10;99.90
16160;DHT22;8185;57.818;15.224;2022-12-10T08:26:16;-4.10;99.90
16160;DHT22;8185;57.818;15.224;2022-12-10T08:28:44;-4.00;99.90
16160;DHT22;8185;57.818;15.224;2022-12-10T08:31:13;-4.00;99.90
16160;DHT22;8185;57.818;15.224;2022-12-10T08:33:40;-4.00;99.90
16160;DHT22;8185;57.818;15.224;2022-12-10T08:36:11;-4.00;99.90
16160;DHT22;8185;57.818;15.224;2022-12-10T08:38:39;-4.00;99.90
16160;DHT22;8185;57.818;15.224;2022-12-10T08:41:07;-4.00;99.90
16160;DHT22;8185;57.818;15.224;2022-12-10T08:43:34;-4.00;99.90
16160;DHT22;8185;57.818;15.224;2022-12-10T08:46:01;-3.90;99.90
16160;DHT22;8185;57.818;15.224;2022-12-10T08:48:29;-3.90;99.90
16160;DHT22;8185;57.818;15.224;2022-12-10T08:50:56;-3.80;99.90
16160;DHT22;8185;57.818;15.224;2022-12-10T08:53:25;-3.80;99.90
16160;DHT22;8185;57.818;15.224;2022-12-10T08:55:53;-3.70;99.90
16160;DHT22;8185;57.818;15.224;2022-12-10T08:58:20;-3.70;99.90
16160;DHT22;8185;57.818;15.224;2022-12-10T09:00:48;-3.90;99.90
16160;DHT22;8185;57.818;15.224;2022-12-10T09:03:16;-3.80;99.90
16160;DHT22;8185;57.818;15.224;2022-12-10T09:05:43;-3.70;99.90
16160;DHT22;8185;57.818;15.224;2022-12-10T09:08:10;-3.70;99.90
16160;DHT22;8185;57.818;15.224;2022-12-10T09:10:40;-3.60;99.90
16160;DHT22;8185;57.818;15.224;2022-12-10T09:13:08;-3.60;99.90
16160;DHT22;8185;57.818;15.224;2022-12-10T09:15:35;-3.60;99.90
16160;DHT22;8185;57.818;15.224;2022-12-10T09:18:02;-3.50;99.90
16160;DHT22;8185;57.818;15.224;2022-12-10T09:20:30;-3.40;99.90
16160;DHT22;8185;57.818;15.224;2022-12-10T09:22:57;-3.40;99.90
16160;DHT22;8185;57.818;15.224;2022-12-10T09:25:24;-3.40;99.90
16160;DHT22;8185;57.818;15.224;2022-12-10T09:27:53;-3.30;99.90
16160;DHT22;8185;57.818;15.224;2022-12-10T09:30:20;-3.40;99.90
16160;DHT22;8185;57.818;15.224;2022-12-10T09:32:47;-3.40;99.90
16160;DHT22;8185;57.818;15.224;2022-12-10T09:35:14;-3.40;99.90
16160;DHT22;8185;57.818;15.224;2022-12-10T09:37:42;-3.30;99.90
16160;DHT22;8185;57.818;15.224;2022-12-10T09:40:13;-3.30;99.90
16160;DHT22;8185;57.818;15.224;2022-12-10T09:42:48;-3.30;99.90
16160;DHT22;8185;57.818;15.224;2022-12-10T09:45:26;-3.30;99.90
16160;DHT22;8185;57.818;15.224;2022-12-10T09:48:01;-3.20;99.90
16160;DHT22;8185;57.818;15.224;2022-12-10T09:50:33;-3.20;99.90
16160;DHT22;8185;57.818;15.224;2022-12-10T09:53:07;-3.20;99.90
16160;DHT22;8185;57.818;15.224;2022-12-10T09:55:42;-3.10;99.90
16160;DHT22;8185;57.818;15.224;2022-12-10T09:58:15;-3.20;99.90
16160;DHT22;8185;57.818;15.224;2022-12-10T10:00:47;-3.10;99.90
16160;DHT22;8185;57.818;15.224;2022-12-10T10:03:16;-3.00;99.90
16160;DHT22;8185;57.818;15.224;2022-12-10T10:05:47;-3.00;99.90
16160;DHT22;8185;57.818;15.224;2022-12-10T10:08:23;-3.00;99.90
16160;DHT22;8185;57.818;15.224;2022-12-10T10:10:51;-3.00;99.90
16160;DHT22;8185;57.818;15.224;2022-12-10T10:13:26;-3.00;99.90
16160;DHT22;8185;57.818;15.224;2022-12-10T10:16:00;-2.90;99.90
16160;DHT22;8185;57.818;15.224;2022-12-10T10:18:34;-2.90;99.90
16160;DHT22;8185;57.818;15.224;2022-12-10T10:21:04;-2.80;99.90
16160;DHT22;8185;57.818;15.224;2022-12-10T10:23:33;-2.70;99.90
16160;DHT22;8185;57.818;15.224;2022-12-10T10:26:00;-2.70;99.90
16160;DHT22;8185;57.818;15.224;2022-12-10T10:28:28;-2.60;99.90
16160;DHT22;8185;57.818;15.224;2022-12-10T10:30:57;-2.70;99.90
16160;DHT22;8185;57.818;15.224;2022-12-10T10:33:24;-2.70;99.90
16160;DHT22;8185;57.818;15.224;2022-12-10T10:35:54;-2.70;99.90
16160;DHT22;8185;57.818;15.224;2022-12-10T10:38:27;-2.70;99.90
16160;DHT22;8185;57.818;15.224;2022-12-10T10:40:56;-2.70;99.90
16160;DHT22;8185;57.818;15.224;2022-12-10T10:43:25;-2.70;99.90
16160;DHT22;8185;57.818;15.224;2022-12-10T10:45:56;-2.70;99.90
16160;DHT22;8185;57.818;15.224;2022-12-10T10:48:27;-3.00;99.90
16160;DHT22;8185;57.818;15.224;2022-12-10T10:51:04;-2.80;99.90
16160;DHT22;8185;57.818;15.224;2022-12-10T10:53:42;-2.80;99.90
16160;DHT22;8185;57.818;15.224;2022-12-10T10:56:11;-2.90;99.90
16160;DHT22;8185;57.818;15.224;2022-12-10T10:58:54;-2.80;99.90
16160;DHT22;8185;57.818;15.224;2022-12-10T11:01:25;-2.90;99.90
16160;DHT22;8185;57.818;15.224;2022-12-10T11:03:57;-2.80;99.90
16160;DHT22;8185;57.818;15.224;2022-12-10T11:06:25;-2.80;99.90
16160;DHT22;8185;57.818;15.224;2022-12-10T11:08:57;-2.70;99.90
16160;DHT22;8185;57.818;15.224;2022-12-10T11:11:32;-2.70;99.90
16160;DHT22;8185;57.818;15.224;2022-12-10T11:14:14;-2.60;99.90
16160;DHT22;8185;57.818;15.224;2022-12-10T11:16:42;-2.60;99.90
16160;DHT22;8185;57.818;15.224;2022-12-10T11:19:19;-2.70;99.90
16160;DHT22;8185;57.818;15.224;2022-12-10T11:21:47;-2.70;99.90
16160;DHT22;8185;57.818;15.224;2022-12-10T11:24:18;-2.60;99.90
16160;DHT22;8185;57.818;15.224;2022-12-10T11:26:56;-2.60;99.90
16160;DHT22;8185;57.818;15.224;2022-12-10T11:29:46;-2.70;99.90
16160;DHT22;8185;57.818;15.224;2022-12-10T11:32:25;-2.70;99.90
16160;DHT22;8185;57.818;15.224;2022-12-10T11:35:10;-2.70;99.90
16160;DHT22;8185;57.818;15.224;2022-12-10T11:37:43;-2.80;99.90
16160;DHT22;8185;57.818;15.224;2022-12-10T11:40:28;-2.80;99.90
16160;DHT22;8185;57.818;15.224;2022-12-10T11:43:06;-2.80;99.90
16160;DHT22;8185;57.818;15.224;2022-12-10T11:45:47;-2.80;99.90
16160;DHT22;8185;57.818;15.224;2022-12-10T11:48:31;-2.70;99.90
16160;DHT22;8185;57.818;15.224;2022-12-10T11:51:04;-2.80;99.90
16160;DHT22;8185;57.818;15.224;2022-12-10T11:53:55;-2.70;99.90
16160;DHT22;8185;57.818;15.224;2022-12-10T11:56:26;-2.70;99.90
16160;DHT22;8185;57.818;15.224;2022-12-10T11:59:03;-2.70;99.90
16160;DHT22;8185;57.818;15.224;2022-12-10T12:01:45;-2.70;99.90
16160;DHT22;8185;57.818;15.224;2022-12-10T12:04:30;-2.70;99.90
16160;DHT22;8185;57.818;15.224;2022-12-10T12:07:09;-2.70;99.90
16160;DHT22;8185;57.818;15.224;2022-12-10T12:09:53;-2.60;99.90
16160;DHT22;8185;57.818;15.224;2022-12-10T12:12:31;-2.60;99.90
16160;DHT22;8185;57.818;15.224;2022-12-10T12:15:02;-2.70;99.90
16160;DHT22;8185;57.818;15.224;2022-12-10T12:17:33;-2.80;99.90
16160;DHT22;8185;57.818;15.224;2022-12-10T12:20:04;-2.90;99.90
16160;DHT22;8185;57.818;15.224;2022-12-10T12:22:37;-2.90;99.90
16160;DHT22;8185;57.818;15.224;2022-12-10T12:25:10;-2.90;99.90
16160;DHT22;8185;57.818;15.224;2022-12-10T12:27:45;-3.00;99.90
16160;DHT22;8185;57.818;15.224;2022-12-10T12:30:17;-3.00;99.90
16160;DHT22;8185;57.818;15.224;2022-12-10T12:32:55;-3.00;99.90
16160;DHT22;8185;57.818;15.224;2022-12-10T12:35:32;-3.00;99.90
16160;DHT22;8185;57.818;15.224;2022-12-10T12:38:06;-2.60;99.90
16160;DHT22;8185;57.818;15.224;2022-12-10T12:40:43;-3.10;99.90
16160;DHT22;8185;57.818;15.224;2022-12-10T12:43:16;-3.00;99.90
16160;DHT22;8185;57.818;15.224;2022-12-10T12:45:47;-3.10;99.90
16160;DHT22;8185;57.818;15.224;2022-12-10T12:48:20;-3.00;99.90
16160;DHT22;8185;57.818;15.224;2022-12-10T12:50:53;-3.00;99.90
16160;DHT22;8185;57.818;15.224;2022-12-10T12:53:24;-3.10;99.90
16160;DHT22;8185;57.818;15.224;2022-12-10T12:55:58;-3.00;99.90
16160;DHT22;8185;57.818;15.224;2022-12-10T12:58:40;-3.00;99.90
16160;DHT22;8185;57.818;15.224;2022-12-10T13:01:19;-3.20;99.90
16160;DHT22;8185;57.818;15.224;2022-12-10T13:03:49;-3.20;99.90
16160;DHT22;8185;57.818;15.224;2022-12-10T13:06:22;-3.30;99.90
16160;DHT22;8185;57.818;15.224;2022-12-10T13:08:53;-3.40;99.90
16160;DHT22;8185;57.818;15.224;2022-12-10T13:11:30;-3.40;99.90
16160;DHT22;8185;57.818;15.224;2022-12-10T13:14:29;-3.40;99.90
16160;DHT22;8185;57.818;15.224;2022-12-10T13:17:07;-3.40;99.90
16160;DHT22;8185;57.818;15.224;2022-12-10T13:19:35;-3.50;99.90
16160;DHT22;8185;57.818;15.224;2022-12-10T13:22:07;-3.50;99.90
16160;DHT22;8185;57.818;15.224;2022-12-10T13:25:09;-3.50;99.90
16160;DHT22;8185;57.818;15.224;2022-12-10T13:27:38;-3.50;99.90
16160;DHT22;8185;57.818;15.224;2022-12-10T13:30:30;-3.50;99.90
16160;DHT22;8185;57.818;15.224;2022-12-10T13:33:17;-3.50;99.90
16160;DHT22;8185;57.818;15.224;2022-12-10T13:36:05;-3.60;99.90
16160;DHT22;8185;57.818;15.224;2022-12-10T13:38:39;-3.60;99.90
16160;DHT22;8185;57.818;15.224;2022-12-10T13:41:08;-3.60;99.90
16160;DHT22;8185;57.818;15.224;2022-12-10T13:43:57;-3.60;99.90
16160;DHT22;8185;57.818;15.224;2022-12-10T13:47:00;-3.60;99.90
16160;DHT22;8185;57.818;15.224;2022-12-10T13:49:34;-3.70;99.90
16160;DHT22;8185;57.818;15.224;2022-12-10T13:52:15;-3.70;99.90
16160;DHT22;8185;57.818;15.224;2022-12-10T13:55:07;-3.70;99.90
16160;DHT22;8185;57.818;15.224;2022-12-10T13:58:12;-3.70;99.90
16160;DHT22;8185;57.818;15.224;2022-12-10T14:00:51;-3.80;99.90
16160;DHT22;8185;57.818;15.224;2022-12-10T14:03:51;-3.90;99.90
16160;DHT22;8185;57.818;15.224;2022-12-10T14:06:24;-3.90;99.90
16160;DHT22;8185;57.818;15.224;2022-12-10T14:08:59;-3.90;99.90
16160;DHT22;8185;57.818;15.224;2022-12-10T14:11:31;-3.90;99.90
16160;DHT22;8185;57.818;15.224;2022-12-10T14:14:02;-3.90;99.90
16160;DHT22;8185;57.818;15.224;2022-12-10T14:16:32;-3.90;99.90
16160;DHT22;8185;57.818;15.224;2022-12-10T14:19:03;-3.90;99.90
16160;DHT22;8185;57.818;15.224;2022-12-10T14:21:33;-3.90;99.90
16160;DHT22;8185;57.818;15.224;2022-12-10T14:24:01;-4.00;99.90
16160;DHT22;8185;57.818;15.224;2022-12-10T14:26:30;-4.00;99.90
16160;DHT22;8185;57.818;15.224;2022-12-10T14:28:59;-4.00;99.90
16160;DHT22;8185;57.818;15.224;2022-12-10T14:31:31;-4.00;99.90
16160;DHT22;8185;57.818;15.224;2022-12-10T14:34:02;-4.00;99.90
16160;DHT22;8185;57.818;15.224;2022-12-10T14:36:32;-4.00;99.90
16160;DHT22;8185;57.818;15.224;2022-12-10T14:39:00;-4.00;99.90
16160;DHT22;8185;57.818;15.224;2022-12-10T14:41:30;-4.00;99.90
16160;DHT22;8185;57.818;15.224;2022-12-10T14:44:02;-4.10;99.90
16160;DHT22;8185;57.818;15.224;2022-12-10T14:46:32;-4.10;99.90
16160;DHT22;8185;57.818;15.224;2022-12-10T14:48:59;-4.10;99.90
16160;DHT22;8185;57.818;15.224;2022-12-10T14:51:33;-4.10;99.90
16160;DHT22;8185;57.818;15.224;2022-12-10T14:54:00;-4.20;99.90
16160;DHT22;8185;57.818;15.224;2022-12-10T14:56:30;-4.20;99.90
16160;DHT22;8185;57.818;15.224;2022-12-10T14:59:04;-4.20;99.90
16160;DHT22;8185;57.818;15.224;2022-12-10T15:01:35;-4.20;99.90
16160;DHT22;8185;57.818;15.224;2022-12-10T15:04:06;-4.20;99.90
16160;DHT22;8185;57.818;15.224;2022-12-10T15:06:38;-4.20;99.90
16160;DHT22;8185;57.818;15.224;2022-12-10T15:09:12;-4.30;99.90
16160;DHT22;8185;57.818;15.224;2022-12-10T15:11:40;-4.30;99.90
16160;DHT22;8185;57.818;15.224;2022-12-10T15:14:18;-4.30;99.90
16160;DHT22;8185;57.818;15.224;2022-12-10T15:16:48;-4.30;99.90
16160;DHT22;8185;57.818;15.224;2022-12-10T15:19:21;-4.30;99.90
16160;DHT22;8185;57.818;15.224;2022-12-10T15:21:49;-4.30;99.90
16160;DHT22;8185;57.818;15.224;2022-12-10T15:24:19;-4.30;99.90
16160;DHT22;8185;57.818;15.224;2022-12-10T15:26:48;-4.30;99.90
16160;DHT22;8185;57.818;15.224;2022-12-10T15:29:33;-4.30;99.90
16160;DHT22;8185;57.818;15.224;2022-12-10T15:32:05;-4.30;99.90
16160;DHT22;8185;57.818;15.224;2022-12-10T15:34:39;-4.30;99.90
16160;DHT22;8185;57.818;15.224;2022-12-10T15:37:18;-4.30;99.90
16160;DHT22;8185;57.818;15.224;2022-12-10T15:39:49;-4.30;99.90
16160;DHT22;8185;57.818;15.224;2022-12-10T15:42:44;-4.30;99.90
16160;DHT22;8185;57.818;15.224;2022-12-10T15:45:18;-4.30;99.90
16160;DHT22;8185;57.818;15.224;2022-12-10T15:47:47;-4.40;99.90
16160;DHT22;8185;57.818;15.224;2022-12-10T15:50:14;-4.40;99.90
16160;DHT22;8185;57.818;15.224;2022-12-10T15:52:41;-4.40;99.90
16160;DHT22;8185;57.818;15.224;2022-12-10T15:55:10;-4.50;99.90
16160;DHT22;8185;57.818;15.224;2022-12-10T15:57:38;-4.50;99.90